Time;durP1;ratioP1;P1;durP2;ratioP2;P2;SDS_P1;SDS_P2;PMS_P1;PMS_P2;Temp;Humidity;BMP_temperature;BMP_pressure;BME280_temperature;BME280_humidity;BME280_pressure;Samples;Min_cycle;Max_cycle;Signal;HPM_P1;HPM_P2
2021/09/08 00:01:05;;;;;;;4.40;2.60;;;28.10;93.50;;;;;;5128523;28;20406;-46
2021/09/08 00:03:32;;;;;;;5.55;2.45;;;28.10;93.60;;;;;;5127965;28;20311;-47
2021/09/08 00:05:59;;;;;;;4.75;2.70;;;28.10;93.50;;;;;;5128241;28;20095;-48
2021/09/08 00:08:25;;;;;;;3.90;2.70;;;28.20;93.30;;;;;;5128173;28;20049;-45
2021/09/08 00:10:53;;;;;;;6.53;2.90;;;28.10;93.20;;;;;;5128058;28;20137;-47
2021/09/08 00:13:21;;;;;;;4.90;2.42;;;28.10;93.10;;;;;;5128104;28;20023;-49
2021/09/08 00:15:47;;;;;;;5.05;3.30;;;28.10;93.30;;;;;;5128172;28;20038;-51
2021/09/08 00:18:14;;;;;;;5.68;3.47;;;28.10;93.40;;;;;;5128216;28;20024;-47
2021/09/08 00:20:41;;;;;;;7.03;2.55;;;28.10;93.30;;;;;;5127947;28;20044;-47
2021/09/08 00:23:07;;;;;;;5.47;3.10;;;28.10;93.20;;;;;;5127988;28;20370;-46
2021/09/08 00:25:34;;;;;;;6.25;2.60;;;28.20;93.40;;;;;;5127873;28;20083;-44
2021/09/08 00:28:01;;;;;;;5.70;2.67;;;28.10;93.60;;;;;;5127210;28;20016;-51
2021/09/08 00:30:27;;;;;;;4.65;2.78;;;28.20;93.60;;;;;;5127853;28;20031;-49
2021/09/08 00:32:54;;;;;;;5.22;3.55;;;28.10;93.70;;;;;;5109200;28;20207;-49
2021/09/08 00:35:21;;;;;;;5.45;4.20;;;28.20;93.80;;;;;;5127154;28;20192;-49
2021/09/08 00:37:48;;;;;;;5.38;3.83;;;28.10;93.80;;;;;;5127207;28;20231;-52
2021/09/08 00:40:14;;;;;;;18.40;4.70;;;28.20;93.90;;;;;;5127504;28;20314;-48
2021/09/08 00:42:44;;;;;;;109.70;11.00;;;28.10;94.00;;;;;;5114682;27;20086;-50
2021/09/08 00:45:13;;;;;;;107.60;12.05;;;28.00;93.80;;;;;;5148397;27;20030;-50
2021/09/08 00:47:40;;;;;;;70.90;9.07;;;28.00;93.80;;;;;;5147510;27;20019;-44
2021/09/08 00:50:08;;;;;;;30.02;5.38;;;28.00;93.90;;;;;;5148232;27;20027;-44
2021/09/08 00:52:37;;;;;;;19.90;5.50;;;28.00;93.90;;;;;;5129685;27;20106;-48
2021/09/08 00:55:07;;;;;;;14.20;4.75;;;27.90;93.90;;;;;;5147148;27;20031;-51
2021/09/08 00:57:34;;;;;;;10.70;4.00;;;28.00;94.00;;;;;;5147560;27;20081;-51
2021/09/08 01:00:06;;;;;;;10.18;3.63;;;28.00;94.10;;;;;;5139219;27;20031;-48
2021/09/08 01:02:32;;;;;;;9.35;4.20;;;27.90;94.10;;;;;;5126287;28;20118;-49
2021/09/08 01:04:59;;;;;;;19.17;4.55;;;27.80;94.10;;;;;;5127165;28;20090;-47
2021/09/08 01:07:26;;;;;;;12.20;4.30;;;27.80;94.10;;;;;;5126884;28;20042;-48
2021/09/08 01:09:53;;;;;;;10.63;4.15;;;27.80;94.10;;;;;;5127010;28;20035;-48
2021/09/08 01:12:20;;;;;;;8.95;3.72;;;27.80;94.10;;;;;;5126826;28;20019;-49
2021/09/08 01:14:46;;;;;;;11.32;3.75;;;27.80;94.10;;;;;;5127116;28;20028;-50
2021/09/08 01:17:13;;;;;;;7.43;2.85;;;27.90;94.10;;;;;;5126542;28;20016;-43
2021/09/08 01:19:40;;;;;;;7.43;3.47;;;27.80;94.20;;;;;;5127178;28;20024;-48
2021/09/08 01:22:06;;;;;;;6.97;2.95;;;27.80;94.10;;;;;;5126668;28;20039;-44
2021/09/08 01:24:33;;;;;;;36.75;6.35;;;27.80;94.20;;;;;;5126143;28;20124;-46
2021/09/08 01:27:00;;;;;;;22.50;5.75;;;27.80;94.20;;;;;;5126329;28;20061;-48
2021/09/08 01:29:27;;;;;;;26.88;5.43;;;27.80;94.00;;;;;;5126797;28;20085;-44
2021/09/08 01:31:59;;;;;;;22.23;5.47;;;27.90;94.20;;;;;;5126333;28;20026;-47
2021/09/08 01:34:27;;;;;;;14.18;3.92;;;27.90;94.30;;;;;;5126524;28;20044;-44
2021/09/08 01:36:54;;;;;;;7.63;3.30;;;27.80;94.50;;;;;;5126615;28;20031;-46
2021/09/08 01:39:21;;;;;;;10.65;3.20;;;27.80;94.50;;;;;;5126351;28;20024;-43
2021/09/08 01:41:51;;;;;;;9.63;3.88;;;27.80;94.30;;;;;;5126243;28;20011;-46
2021/09/08 01:44:24;;;;;;;7.25;2.85;;;27.70;94.50;;;;;;5126233;28;20065;-44
2021/09/08 01:46:54;;;;;;;7.38;2.47;;;27.70;94.60;;;;;;5122711;28;20020;-46
2021/09/08 01:49:21;;;;;;;5.97;2.20;;;27.70;94.60;;;;;;5111297;28;20023;-44
2021/09/08 01:51:48;;;;;;;3.17;2.00;;;27.70;94.50;;;;;;5113195;28;20012;-44
2021/09/08 01:54:15;;;;;;;4.47;1.70;;;27.60;94.60;;;;;;5115632;28;20054;-51
2021/09/08 01:56:42;;;;;;;5.18;1.70;;;27.60;94.60;;;;;;5114273;28;20366;-47
2021/09/08 01:59:09;;;;;;;3.55;1.90;;;27.50;94.60;;;;;;5115697;28;20080;-47
2021/09/08 02:01:36;;;;;;;7.35;1.70;;;27.60;94.60;;;;;;5118503;28;20279;-43
2021/09/08 02:04:06;;;;;;;3.50;1.92;;;27.60;94.40;;;;;;5115365;28;20077;-47
2021/09/08 02:06:34;;;;;;;4.47;1.77;;;27.60;94.40;;;;;;5105731;28;20004;-44
2021/09/08 02:09:01;;;;;;;5.30;1.67;;;27.60;94.50;;;;;;5092738;28;20363;-45
2021/09/08 02:11:28;;;;;;;4.20;1.70;;;27.60;94.40;;;;;;5104934;28;20055;-47
2021/09/08 02:13:55;;;;;;;5.65;1.83;;;27.60;94.40;;;;;;5104724;28;20204;-51
2021/09/08 02:16:22;;;;;;;3.50;1.85;;;27.60;94.50;;;;;;5104844;28;20066;-44
2021/09/08 02:18:51;;;;;;;4.45;2.03;;;27.60;94.50;;;;;;5105358;28;20035;-49
2021/09/08 02:21:19;;;;;;;4.20;1.85;;;27.60;94.40;;;;;;5091135;28;20024;-47
2021/09/08 02:23:46;;;;;;;4.38;1.83;;;27.50;94.40;;;;;;5111363;28;20023;-44
2021/09/08 02:26:13;;;;;;;3.78;1.65;;;27.50;94.50;;;;;;5112334;28;20020;-45
2021/09/08 02:28:40;;;;;;;2.80;1.55;;;27.60;94.60;;;;;;5124749;28;20024;-50
2021/09/08 02:31:07;;;;;;;7.43;2.00;;;27.60;94.50;;;;;;5109119;28;20030;-45
2021/09/08 02:33:34;;;;;;;6.03;2.20;;;27.60;94.50;;;;;;5104996;28;20039;-45
2021/09/08 02:36:01;;;;;;;4.43;2.15;;;27.60;94.50;;;;;;5121868;28;20043;-48
2021/09/08 02:38:31;;;;;;;3.60;1.80;;;27.40;94.50;;;;;;5124907;28;20016;-51
2021/09/08 02:40:59;;;;;;;4.68;1.60;;;27.40;94.50;;;;;;5125034;28;20015;-46
2021/09/08 02:43:27;;;;;;;5.30;2.00;;;27.50;94.60;;;;;;5125098;28;20307;-48
2021/09/08 02:45:54;;;;;;;4.35;1.90;;;27.40;94.60;;;;;;5125170;28;20086;-45
2021/09/08 02:48:20;;;;;;;4.15;1.73;;;27.50;94.70;;;;;;5125260;28;20019;-45
2021/09/08 02:50:47;;;;;;;3.25;1.75;;;27.50;94.60;;;;;;5124544;28;20106;-53
2021/09/08 02:53:14;;;;;;;3.83;1.23;;;27.50;94.40;;;;;;5124720;28;20016;-45
2021/09/08 02:55:41;;;;;;;3.88;1.65;;;27.50;94.30;;;;;;5125192;28;20055;-47
2021/09/08 02:58:07;;;;;;;8.95;1.63;;;27.50;94.30;;;;;;5124904;28;20016;-47
2021/09/08 03:00:34;;;;;;;5.95;1.50;;;27.40;94.30;;;;;;5125434;28;20094;-45
2021/09/08 03:03:01;;;;;;;3.40;1.40;;;27.30;94.10;;;;;;5124943;28;20018;-49
2021/09/08 03:05:27;;;;;;;2.75;1.40;;;27.40;94.20;;;;;;5125205;28;20031;-47
2021/09/08 03:07:54;;;;;;;2.38;1.48;;;27.40;94.10;;;;;;5125057;28;20020;-48
2021/09/08 03:10:21;;;;;;;3.47;1.60;;;27.40;94.10;;;;;;5124435;28;20097;-49
2021/09/08 03:12:47;;;;;;;2.88;1.50;;;27.40;94.10;;;;;;5124695;28;20015;-46
2021/09/08 03:15:14;;;;;;;4.40;1.88;;;27.40;94.00;;;;;;5125159;28;20031;-49
2021/09/08 03:17:41;;;;;;;2.10;1.30;;;27.40;94.00;;;;;;5124517;28;20019;-53
2021/09/08 03:20:08;;;;;;;4.00;1.38;;;27.40;93.90;;;;;;5124860;28;20061;-49
2021/09/08 03:22:35;;;;;;;4.53;1.30;;;27.50;94.10;;;;;;5124475;28;20039;-46
2021/09/08 03:25:01;;;;;;;3.15;1.40;;;27.40;94.30;;;;;;5123970;28;20027;-46
2021/09/08 03:27:28;;;;;;;6.50;1.65;;;27.30;94.40;;;;;;5123752;28;20257;-50
2021/09/08 03:29:55;;;;;;;3.05;1.38;;;27.30;94.40;;;;;;5121575;28;20121;-48
2021/09/08 03:32:21;;;;;;;8.10;1.30;;;27.30;94.30;;;;;;5124102;28;20019;-49
2021/09/08 03:34:48;;;;;;;6.07;1.40;;;27.40;94.20;;;;;;5123798;28;20323;-48
2021/09/08 03:37:17;;;;;;;4.60;1.70;;;27.40;94.10;;;;;;5123379;28;20232;-52
2021/09/08 03:39:44;;;;;;;2.30;1.27;;;27.40;94.20;;;;;;5124040;28;20039;-45
2021/09/08 03:42:10;;;;;;;2.85;1.40;;;27.50;94.00;;;;;;5124321;28;20028;-44
2021/09/08 03:44:37;;;;;;;4.78;1.15;;;27.50;94.00;;;;;;5124548;28;20180;-50
2021/09/08 03:47:03;;;;;;;2.15;1.05;;;27.50;93.80;;;;;;5124322;28;20115;-48
2021/09/08 03:49:30;;;;;;;2.72;1.30;;;27.50;93.80;;;;;;5124597;28;20043;-49
2021/09/08 03:51:57;;;;;;;3.67;1.40;;;27.50;93.60;;;;;;5124231;28;20092;-49
2021/09/08 03:54:24;;;;;;;4.10;1.20;;;27.50;93.50;;;;;;5124069;28;20030;-49
2021/09/08 03:56:50;;;;;;;4.55;1.10;;;27.50;93.50;;;;;;5124356;28;20034;-50
2021/09/08 03:59:17;;;;;;;2.38;0.98;;;27.50;93.40;;;;;;5124210;28;20018;-49
2021/09/08 04:01:43;;;;;;;3.28;1.10;;;27.50;93.40;;;;;;5124290;28;20023;-52
2021/09/08 04:04:10;;;;;;;1.55;0.93;;;27.50;93.40;;;;;;5124264;28;20020;-49
2021/09/08 04:06:37;;;;;;;2.28;0.90;;;27.50;93.30;;;;;;5123826;28;20189;-46
2021/09/08 04:09:03;;;;;;;2.80;1.10;;;27.50;93.30;;;;;;5124017;28;20024;-44
2021/09/08 04:11:30;;;;;;;4.70;0.95;;;27.50;93.40;;;;;;5123933;28;20020;-50
2021/09/08 04:13:56;;;;;;;3.38;1.10;;;27.50;93.40;;;;;;5124066;28;20037;-55
2021/09/08 04:16:23;;;;;;;2.40;0.85;;;27.50;93.30;;;;;;5123993;28;20027;-52
2021/09/08 04:18:49;;;;;;;4.28;0.90;;;27.50;93.30;;;;;;5124438;28;20020;-50
2021/09/08 04:21:16;;;;;;;12.82;2.13;;;27.40;93.30;;;;;;5123890;28;20045;-51
2021/09/08 04:23:43;;;;;;;25.55;2.28;;;27.50;93.50;;;;;;5123576;28;20023;-48
2021/09/08 04:26:09;;;;;;;19.23;2.45;;;27.40;93.50;;;;;;5123812;28;20030;-49
2021/09/08 04:28:36;;;;;;;16.05;2.83;;;27.40;93.50;;;;;;5123824;28;20023;-46
2021/09/08 04:31:02;;;;;;;18.00;2.78;;;27.40;93.60;;;;;;5124009;28;20031;-45
2021/09/08 04:33:29;;;;;;;16.60;2.22;;;27.30;93.50;;;;;;5123876;28;20011;-48
2021/09/08 04:35:56;;;;;;;26.58;2.92;;;27.30;93.30;;;;;;5123417;28;20383;-47
2021/09/08 04:38:24;;;;;;;16.00;2.88;;;27.30;93.60;;;;;;5125198;28;20250;-48
2021/09/08 04:40:51;;;;;;;20.27;2.05;;;27.30;93.50;;;;;;5127646;28;20065;-50
2021/09/08 04:43:18;;;;;;;8.93;1.45;;;27.40;93.50;;;;;;5127449;28;20041;-48
2021/09/08 04:45:44;;;;;;;5.80;0.90;;;27.40;93.50;;;;;;5127589;28;20087;-43
2021/09/08 04:48:11;;;;;;;8.30;1.20;;;27.30;93.40;;;;;;5127577;28;20031;-45
2021/09/08 04:50:38;;;;;;;5.38;1.08;;;27.40;93.30;;;;;;5127701;28;20030;-48
2021/09/08 04:53:04;;;;;;;5.07;0.93;;;27.30;93.20;;;;;;5127108;28;20027;-45
2021/09/08 04:55:31;;;;;;;3.97;0.93;;;27.40;93.40;;;;;;5127755;28;20023;-46
2021/09/08 04:57:57;;;;;;;5.35;1.10;;;27.40;93.40;;;;;;5127222;28;20090;-53
2021/09/08 05:00:24;;;;;;;3.33;0.80;;;27.40;93.30;;;;;;5127820;28;20024;-48
2021/09/08 05:02:51;;;;;;;4.40;0.90;;;27.40;93.20;;;;;;5127236;28;20023;-48
2021/09/08 05:05:17;;;;;;;2.53;0.98;;;27.40;93.20;;;;;;5127715;28;20120;-46
2021/09/08 05:07:44;;;;;;;3.67;0.90;;;27.40;93.20;;;;;;5126813;28;20031;-48
2021/09/08 05:10:11;;;;;;;3.83;1.10;;;27.40;93.20;;;;;;5127173;28;20031;-44
2021/09/08 05:12:37;;;;;;;2.95;1.00;;;27.40;93.10;;;;;;5127229;28;20027;-44
2021/09/08 05:15:07;;;;;;;1.65;0.80;;;27.40;93.10;;;;;;5127209;28;20022;-47
2021/09/08 05:17:34;;;;;;;3.60;0.70;;;27.40;93.10;;;;;;5127050;28;20216;-51
2021/09/08 05:20:01;;;;;;;1.77;0.80;;;27.40;93.20;;;;;;5127483;28;20204;-47
2021/09/08 05:22:28;;;;;;;2.35;0.77;;;27.30;93.20;;;;;;5126384;28;20016;-43
2021/09/08 05:24:54;;;;;;;1.92;0.80;;;27.30;93.20;;;;;;5107651;28;20020;-45
2021/09/08 05:27:21;;;;;;;1.80;0.73;;;27.40;93.30;;;;;;5127035;28;20035;-48
2021/09/08 05:29:47;;;;;;;4.00;0.73;;;27.40;93.20;;;;;;5126979;28;20076;-44
2021/09/08 05:32:14;;;;;;;3.17;0.90;;;27.40;93.20;;;;;;5126988;28;20023;-44
2021/09/08 05:34:41;;;;;;;1.83;0.82;;;27.30;93.20;;;;;;5126672;28;20063;-44
2021/09/08 05:37:07;;;;;;;3.53;0.70;;;27.30;93.30;;;;;;5126280;28;20027;-51
2021/09/08 05:39:34;;;;;;;0.75;0.60;;;27.30;93.30;;;;;;5126858;28;20064;-44
2021/09/08 05:42:00;;;;;;;4.10;1.08;;;27.30;93.30;;;;;;5125883;28;20016;-46
2021/09/08 05:44:27;;;;;;;1.27;0.68;;;27.30;93.30;;;;;;5126098;28;20049;-44
2021/09/08 05:46:53;;;;;;;3.78;0.80;;;27.30;93.30;;;;;;5126900;28;20049;-46
2021/09/08 05:49:20;;;;;;;1.90;0.90;;;27.30;93.30;;;;;;5127055;28;20023;-51
2021/09/08 05:51:47;;;;;;;2.60;0.90;;;27.30;93.20;;;;;;5126860;28;20031;-45
2021/09/08 05:54:13;;;;;;;3.78;0.80;;;27.30;93.30;;;;;;5126762;28;20030;-46
2021/09/08 05:56:40;;;;;;;1.25;0.77;;;27.30;93.40;;;;;;5126794;28;20133;-48
2021/09/08 05:59:06;;;;;;;4.53;1.00;;;27.20;93.20;;;;;;5126820;28;20024;-46
2021/09/08 06:01:33;;;;;;;1.63;0.73;;;27.20;93.20;;;;;;5126667;28;20189;-53
2021/09/08 06:04:02;;;;;;;1.48;0.70;;;27.20;93.50;;;;;;5126795;28;20078;-46
2021/09/08 06:06:29;;;;;;;3.38;0.88;;;27.20;93.60;;;;;;5126408;28;20027;-53
2021/09/08 06:08:55;;;;;;;1.60;0.90;;;27.20;93.60;;;;;;5126329;28;20088;-44
2021/09/08 06:11:22;;;;;;;3.30;0.95;;;27.20;93.60;;;;;;5126573;28;20042;-52
2021/09/08 06:13:49;;;;;;;4.22;1.00;;;27.20;93.60;;;;;;5126604;28;20027;-44
2021/09/08 06:16:15;;;;;;;2.35;0.82;;;27.10;93.60;;;;;;5126462;28;20027;-51
2021/09/08 06:18:42;;;;;;;2.95;0.90;;;27.20;93.60;;;;;;5126389;28;20091;-45
2021/09/08 06:21:09;;;;;;;2.85;1.13;;;27.20;93.70;;;;;;5126338;28;20030;-50
2021/09/08 06:23:35;;;;;;;1.65;0.80;;;27.20;93.70;;;;;;5126299;28;20372;-51
2021/09/08 06:26:02;;;;;;;1.98;0.77;;;27.20;93.70;;;;;;5126321;28;20027;-44
2021/09/08 06:28:30;;;;;;;4.07;1.02;;;27.10;93.70;;;;;;5126112;28;20361;-48
2021/09/08 06:30:57;;;;;;;3.72;1.08;;;27.10;93.80;;;;;;5126070;28;20058;-48
2021/09/08 06:33:23;;;;;;;4.82;1.08;;;27.10;93.80;;;;;;5126067;28;20023;-51
2021/09/08 06:35:50;;;;;;;5.38;1.23;;;27.10;93.80;;;;;;5125709;28;20047;-45
2021/09/08 06:38:17;;;;;;;3.70;0.93;;;27.10;93.90;;;;;;5126054;28;20058;-46
2021/09/08 06:40:43;;;;;;;2.53;1.02;;;27.10;93.90;;;;;;5126000;28;20046;-51
2021/09/08 06:43:10;;;;;;;2.33;0.70;;;27.10;93.90;;;;;;5126040;28;20041;-46
2021/09/08 06:45:37;;;;;;;2.90;1.00;;;27.10;93.90;;;;;;5126258;28;20027;-48
2021/09/08 06:48:03;;;;;;;1.60;0.80;;;27.10;93.90;;;;;;5125848;28;20019;-49
2021/09/08 06:50:30;;;;;;;2.97;0.82;;;27.10;93.90;;;;;;5126220;28;20049;-54
2021/09/08 06:52:57;;;;;;;5.05;0.80;;;27.10;93.90;;;;;;5125532;28;20030;-49
2021/09/08 06:55:24;;;;;;;1.88;0.90;;;27.10;93.90;;;;;;5125988;28;20026;-45
2021/09/08 06:57:50;;;;;;;4.88;0.90;;;27.10;93.90;;;;;;5125457;28;20047;-47
2021/09/08 07:00:17;;;;;;;3.33;1.00;;;27.10;93.90;;;;;;5125223;28;20019;-45
2021/09/08 07:02:43;;;;;;;1.92;1.00;;;27.10;93.90;;;;;;5125581;28;20019;-45
2021/09/08 07:05:10;;;;;;;2.35;0.80;;;27.10;93.90;;;;;;5125909;28;20023;-46
2021/09/08 07:07:37;;;;;;;7.95;1.13;;;27.00;93.80;;;;;;5125324;28;20028;-46
2021/09/08 07:10:04;;;;;;;4.38;0.98;;;27.00;93.80;;;;;;5125825;28;20027;-48
2021/09/08 07:12:30;;;;;;;3.28;1.00;;;27.00;93.80;;;;;;5125363;28;20091;-47
2021/09/08 07:14:57;;;;;;;4.55;1.10;;;27.00;93.80;;;;;;5125411;28;20031;-47
2021/09/08 07:17:23;;;;;;;1.98;0.70;;;27.00;93.90;;;;;;5107100;28;20031;-44
2021/09/08 07:19:50;;;;;;;4.95;1.00;;;27.00;93.90;;;;;;5125274;28;20011;-44
2021/09/08 07:22:16;;;;;;;2.55;0.90;;;27.00;93.90;;;;;;5125014;28;20068;-45
2021/09/08 07:24:43;;;;;;;3.35;1.17;;;27.00;93.90;;;;;;5124989;28;20026;-46
2021/09/08 07:27:10;;;;;;;4.63;1.25;;;27.00;94.00;;;;;;5124663;28;20315;-47
2021/09/08 07:29:37;;;;;;;3.88;0.93;;;26.90;93.90;;;;;;5124898;28;20027;-47
2021/09/08 07:32:05;;;;;;;6.25;1.00;;;26.90;93.90;;;;;;5124928;28;20060;-48
2021/09/08 07:34:32;;;;;;;3.15;0.80;;;26.90;93.90;;;;;;5124885;28;20047;-43
2021/09/08 07:36:59;;;;;;;4.72;1.17;;;26.90;93.90;;;;;;5124413;28;20023;-52
2021/09/08 07:39:26;;;;;;;5.45;1.08;;;26.90;93.90;;;;;;5124683;28;20090;-45
2021/09/08 07:41:52;;;;;;;2.97;0.77;;;26.90;94.00;;;;;;5124468;28;20323;-44
2021/09/08 07:44:19;;;;;;;2.92;1.20;;;26.90;93.90;;;;;;5124638;28;20030;-44
2021/09/08 07:46:45;;;;;;;5.05;1.20;;;26.90;94.10;;;;;;5124669;28;20169;-46
2021/09/08 07:49:12;;;;;;;3.95;1.38;;;26.80;94.10;;;;;;5124673;28;20061;-51
2021/09/08 07:51:39;;;;;;;3.30;1.17;;;26.80;94.20;;;;;;5124334;28;20043;-54
2021/09/08 07:54:05;;;;;;;5.32;1.30;;;26.80;94.30;;;;;;5124906;28;20027;-44
2021/09/08 07:56:32;;;;;;;10.27;1.33;;;26.70;94.50;;;;;;5124652;28;20020;-44
2021/09/08 07:58:59;;;;;;;11.05;1.70;;;26.70;94.50;;;;;;5124751;28;20051;-48
2021/09/08 08:01:25;;;;;;;18.88;2.03;;;26.60;94.50;;;;;;5124780;28;20035;-48
2021/09/08 08:03:52;;;;;;;16.65;2.70;;;26.70;94.50;;;;;;5124382;28;20015;-43
2021/09/08 08:06:19;;;;;;;18.02;2.25;;;26.70;94.50;;;;;;5124533;28;20031;-46
2021/09/08 08:08:45;;;;;;;10.07;2.15;;;26.70;94.50;;;;;;5124459;28;20030;-53
2021/09/08 08:11:12;;;;;;;10.93;1.48;;;26.80;94.40;;;;;;5124310;28;20024;-44
2021/09/08 08:13:38;;;;;;;7.35;1.70;;;26.80;94.50;;;;;;5128929;28;20098;-51
2021/09/08 08:16:06;;;;;;;6.22;1.40;;;26.70;94.50;;;;;;5128204;28;20047;-44
2021/09/08 08:18:32;;;;;;;7.68;1.50;;;26.70;94.60;;;;;;5128092;28;20054;-44
2021/09/08 08:20:59;;;;;;;9.02;1.40;;;26.70;94.60;;;;;;5128179;28;20020;-49
2021/09/08 08:23:26;;;;;;;6.43;1.42;;;26.70;94.60;;;;;;5127971;28;20347;-51
2021/09/08 08:25:52;;;;;;;7.22;1.38;;;26.70;94.50;;;;;;5128510;28;20020;-45
2021/09/08 08:28:19;;;;;;;4.75;1.60;;;26.70;94.60;;;;;;5128022;28;20016;-50
2021/09/08 08:30:45;;;;;;;7.72;1.27;;;26.70;94.60;;;;;;5128020;28;20024;-52
2021/09/08 08:33:12;;;;;;;5.97;1.50;;;26.70;94.90;;;;;;5128375;28;20011;-48
2021/09/08 08:35:39;;;;;;;9.15;1.33;;;26.70;94.70;;;;;;5127714;28;20056;-52
2021/09/08 08:38:05;;;;;;;7.07;1.60;;;26.60;94.60;;;;;;5127887;28;20019;-54
2021/09/08 08:40:32;;;;;;;6.43;1.45;;;26.70;94.70;;;;;;5128301;28;20023;-55
2021/09/08 08:43:00;;;;;;;4.22;1.23;;;26.70;94.70;;;;;;5127778;28;20077;-55
2021/09/08 08:45:28;;;;;;;9.13;1.23;;;26.60;94.70;;;;;;5128047;28;20312;-49
2021/09/08 08:47:55;;;;;;;8.55;1.20;;;26.70;94.70;;;;;;5127690;28;20016;-48
2021/09/08 08:50:25;;;;;;;8.05;1.73;;;26.80;94.70;;;;;;5128063;28;20095;-46
2021/09/08 08:52:53;;;;;;;8.73;1.30;;;26.70;94.60;;;;;;5127916;28;20028;-50
2021/09/08 08:55:20;;;;;;;4.53;1.25;;;26.70;94.60;;;;;;5127811;28;20199;-51
2021/09/08 08:57:49;;;;;;;7.45;1.13;;;26.80;94.70;;;;;;5127932;28;20015;-54
2021/09/08 09:00:21;;;;;;;8.15;1.00;;;26.70;94.80;;;;;;5127726;28;20080;-49
2021/09/08 09:02:49;;;;;;;3.10;1.48;;;26.70;94.80;;;;;;5127573;28;20084;-48
2021/09/08 09:05:41;;;;;;;3.47;1.10;;;26.70;94.80;;;;;;5128077;28;20059;-51
2021/09/08 09:08:10;;;;;;;9.68;1.25;;;26.70;94.70;;;;;;5127860;28;20089;-46
2021/09/08 09:10:39;;;;;;;8.48;1.27;;;26.70;94.70;;;;;;5127280;28;20380;-50
2021/09/08 09:13:07;;;;;;;6.55;1.42;;;26.70;94.70;;;;;;5127559;28;20061;-52
2021/09/08 09:15:35;;;;;;;7.22;1.42;;;26.70;94.70;;;;;;5127894;28;20129;-51
2021/09/08 09:18:02;;;;;;;5.95;1.35;;;26.70;94.70;;;;;;5127063;28;20285;-51
2021/09/08 09:20:30;;;;;;;4.20;1.33;;;26.70;94.80;;;;;;5127617;28;20019;-51
2021/09/08 09:22:59;;;;;;;4.53;1.63;;;26.70;94.90;;;;;;5127450;28;20230;-53
2021/09/08 09:25:35;;;;;;;4.70;1.30;;;26.70;94.90;;;;;;5127091;28;20024;-49
2021/09/08 09:28:05;;;;;;;8.48;1.33;;;26.70;94.80;;;;;;5126871;28;20179;-48
2021/09/08 09:30:34;;;;;;;6.13;1.20;;;26.70;94.80;;;;;;5127127;28;20094;-45
2021/09/08 09:33:01;;;;;;;6.20;1.50;;;26.70;94.80;;;;;;5126930;28;20015;-46
2021/09/08 09:35:30;;;;;;;5.00;1.48;;;26.70;94.80;;;;;;5126885;28;20242;-49
2021/09/08 09:38:00;;;;;;;3.47;1.30;;;26.60;94.80;;;;;;5126776;28;20015;-52
2021/09/08 09:40:33;;;;;;;4.88;1.33;;;26.60;94.80;;;;;;5127563;28;20031;-49
2021/09/08 09:43:06;;;;;;;;;;;26.60;94.80;;;;;;5127072;28;20286;-52
2021/09/08 09:45:38;;;;;;;10.00;1.42;;;26.70;94.80;;;;;;5127093;28;19975;-45
2021/09/08 09:48:06;;;;;;;2.65;1.20;;;26.70;94.90;;;;;;5126653;28;20038;-46
2021/09/08 09:50:33;;;;;;;6.35;1.73;;;26.60;94.80;;;;;;5126978;28;20270;-51
2021/09/08 09:53:02;;;;;;;7.53;1.60;;;26.70;94.80;;;;;;5126413;28;20066;-46
2021/09/08 09:55:29;;;;;;;6.45;1.83;;;26.70;94.80;;;;;;5126300;28;20024;-45
2021/09/08 09:57:57;;;;;;;6.13;1.38;;;26.70;94.80;;;;;;5126458;28;20086;-51
2021/09/08 10:00:24;;;;;;;3.97;1.40;;;26.70;94.80;;;;;;5126841;28;20180;-53
2021/09/08 10:02:52;;;;;;;7.72;1.50;;;26.70;94.90;;;;;;5126143;28;20185;-53
2021/09/08 10:05:18;;;;;;;8.32;1.85;;;26.70;94.90;;;;;;5126697;28;20082;-51
2021/09/08 10:07:45;;;;;;;4.95;1.63;;;26.70;94.90;;;;;;5126862;28;20031;-48
2021/09/08 10:10:16;;;;;;;11.45;1.95;;;26.70;94.90;;;;;;5126813;28;20028;-49
2021/09/08 10:12:54;;;;;;;5.70;1.25;;;26.70;94.90;;;;;;5126205;28;20361;-45
2021/09/08 10:15:22;;;;;;;8.35;1.42;;;26.70;95.00;;;;;;5126460;28;20055;-45
2021/09/08 10:17:49;;;;;;;9.82;1.70;;;26.70;95.00;;;;;;5126344;28;20034;-45
2021/09/08 10:20:21;;;;;;;8.38;1.65;;;26.70;94.90;;;;;;5126260;28;20288;-47
2021/09/08 10:22:49;;;;;;;19.88;2.50;;;26.70;95.00;;;;;;5125882;28;20306;-44
2021/09/08 10:25:18;;;;;;;14.93;2.33;;;26.70;95.00;;;;;;5126201;28;20093;-43
2021/09/08 10:27:45;;;;;;;12.20;1.98;;;26.70;95.00;;;;;;5125762;28;20286;-44
2021/09/08 10:30:13;;;;;;;9.75;1.75;;;26.70;95.00;;;;;;5126067;28;20023;-48
2021/09/08 10:32:40;;;;;;;7.30;1.45;;;26.70;95.10;;;;;;5125550;28;20023;-50
2021/09/08 10:35:15;;;;;;;5.30;1.83;;;26.60;95.10;;;;;;5124673;28;20130;-50
2021/09/08 10:37:49;;;;;;;11.73;1.70;;;26.60;95.10;;;;;;5125888;28;20023;-48
2021/09/08 10:40:19;;;;;;;5.15;1.88;;;26.70;95.10;;;;;;5125747;28;20024;-48
2021/09/08 10:43:00;;;;;;;8.32;1.85;;;26.60;95.00;;;;;;5125511;28;20011;-56
2021/09/08 10:45:30;;;;;;;10.07;2.08;;;26.60;95.10;;;;;;5125899;28;20031;-50
2021/09/08 10:47:59;;;;;;;6.60;1.77;;;26.60;95.10;;;;;;5125356;28;20024;-45
2021/09/08 10:50:35;;;;;;;9.00;1.98;;;26.70;95.10;;;;;;5125518;28;20314;-45
2021/09/08 10:53:27;;;;;;;7.68;1.80;;;26.70;95.10;;;;;;5125365;28;20026;-45
2021/09/08 10:55:55;;;;;;;8.93;1.83;;;26.60;95.10;;;;;;5112904;28;20089;-51
2021/09/08 10:58:22;;;;;;;6.22;2.28;;;26.60;95.10;;;;;;5124936;28;20090;-43
2021/09/08 11:00:51;;;;;;;5.00;2.00;;;26.60;95.10;;;;;;5125147;28;20052;-44
2021/09/08 11:03:18;;;;;;;12.43;1.90;;;26.60;95.20;;;;;;5124938;28;20016;-48
2021/09/08 11:05:47;;;;;;;7.05;1.85;;;26.60;95.30;;;;;;5125297;28;20047;-49
2021/09/08 11:08:32;;;;;;;8.98;2.05;;;26.60;95.30;;;;;;5125296;28;20016;-50
2021/09/08 11:11:09;;;;;;;9.90;2.08;;;26.60;95.30;;;;;;5124993;28;20042;-45
2021/09/08 11:13:36;;;;;;;10.45;2.38;;;26.60;95.30;;;;;;5125069;28;20299;-54
2021/09/08 11:16:15;;;;;;;9.82;1.88;;;26.60;95.30;;;;;;5124678;28;20023;-43
2021/09/08 11:18:42;;;;;;;6.55;1.52;;;26.60;95.20;;;;;;5125166;28;20062;-49
2021/09/08 11:21:09;;;;;;;8.10;1.95;;;26.70;95.20;;;;;;5106809;28;20018;-48
2021/09/08 11:23:35;;;;;;;9.32;1.77;;;26.70;95.20;;;;;;5125055;28;20013;-50
2021/09/08 11:26:12;;;;;;;8.00;2.17;;;26.70;95.20;;;;;;5124784;28;20482;-48
2021/09/08 11:28:40;;;;;;;10.13;2.10;;;26.70;95.10;;;;;;5124716;28;20042;-47
2021/09/08 11:31:15;;;;;;;12.27;2.13;;;26.80;95.10;;;;;;5124616;28;20015;-47
2021/09/08 11:33:42;;;;;;;12.32;2.08;;;26.80;95.00;;;;;;5124583;28;20062;-52
2021/09/08 11:36:13;;;;;;;7.97;1.95;;;26.80;94.90;;;;;;5124505;28;20060;-45
2021/09/08 11:38:56;;;;;;;9.35;1.80;;;26.80;94.70;;;;;;5124391;28;20034;-48
2021/09/08 11:41:25;;;;;;;11.55;1.92;;;26.80;94.70;;;;;;5124835;28;20318;-48
2021/09/08 11:43:53;;;;;;;5.60;1.58;;;26.80;94.60;;;;;;5124970;28;20031;-52
2021/09/08 11:46:27;;;;;;;4.75;1.60;;;26.80;94.60;;;;;;5124568;28;20082;-51
2021/09/08 11:49:11;;;;;;;11.02;2.00;;;26.80;94.60;;;;;;5125096;28;20023;-51
2021/09/08 11:51:40;;;;;;;4.63;1.60;;;26.80;94.60;;;;;;5124643;28;20027;-49
2021/09/08 11:54:28;;;;;;;6.15;1.60;;;26.80;94.60;;;;;;5125489;28;20087;-55
2021/09/08 11:56:57;;;;;;;11.32;1.90;;;26.80;94.70;;;;;;5124380;28;20125;-52
2021/09/08 11:59:35;;;;;;;7.93;1.80;;;26.80;94.60;;;;;;5125002;28;20031;-50
2021/09/08 12:02:03;;;;;;;9.20;1.90;;;26.80;94.50;;;;;;5124595;28;20177;-51
2021/09/08 12:04:30;;;;;;;7.25;1.45;;;26.80;94.60;;;;;;5124872;28;20027;-53
2021/09/08 12:07:00;;;;;;;9.10;1.80;;;26.80;94.60;;;;;;5124863;28;20023;-48
2021/09/08 12:09:32;;;;;;;5.55;1.90;;;26.80;94.50;;;;;;5124675;28;20035;-46
2021/09/08 12:12:01;;;;;;;6.57;2.28;;;26.80;94.50;;;;;;5124452;28;20030;-48
2021/09/08 12:14:32;;;;;;;8.00;2.15;;;26.80;94.60;;;;;;5124428;28;20164;-46
2021/09/08 12:17:05;;;;;;;6.22;1.90;;;26.90;94.60;;;;;;5124042;28;20020;-52
2021/09/08 12:19:36;;;;;;;5.35;2.08;;;26.90;94.60;;;;;;5124418;28;20030;-48
2021/09/08 12:22:04;;;;;;;6.13;2.20;;;26.80;94.60;;;;;;5124362;28;20023;-49
2021/09/08 12:24:33;;;;;;;6.43;2.50;;;26.90;94.60;;;;;;5124033;28;20034;-51
2021/09/08 12:26:59;;;;;;;9.77;2.33;;;26.90;94.70;;;;;;5124045;28;20019;-51
2021/09/08 12:29:26;;;;;;;8.20;2.15;;;26.90;94.60;;;;;;5124310;28;20023;-50
2021/09/08 12:31:54;;;;;;;8.68;2.20;;;26.90;94.60;;;;;;5123980;28;20091;-52
2021/09/08 12:34:21;;;;;;;8.18;2.60;;;26.90;94.60;;;;;;5123891;28;20036;-51
2021/09/08 12:36:49;;;;;;;6.70;2.88;;;26.90;94.60;;;;;;5123812;28;20300;-49
2021/09/08 12:39:19;;;;;;;8.32;3.55;;;26.90;94.50;;;;;;5123945;28;20027;-47
2021/09/08 12:42:00;;;;;;;10.43;3.40;;;26.90;94.50;;;;;;5123831;28;20036;-48
2021/09/08 12:44:35;;;;;;;8.98;3.17;;;26.90;94.30;;;;;;5123811;28;20024;-47
2021/09/08 12:47:08;;;;;;;12.48;3.38;;;26.90;94.30;;;;;;5124027;28;20022;-50
2021/09/08 12:49:35;;;;;;;15.63;3.50;;;26.90;94.30;;;;;;5105849;28;20090;-46